Time;durP1;ratioP1;P1;durP2;ratioP2;P2;SDS_P1;SDS_P2;PMS_P1;PMS_P2;Temp;Humidity;BMP_temperature;BMP_pressure;BME280_temperature;BME280_humidity;BME280_pressure;Samples;Min_cycle;Max_cycle;Signal;HPM_P1;HPM_P2
2024/01/18 00:00:28;;;;;;;6.45;4.80;;;;;;;-2.11;96.86;99408.78;5025503;28;20057;-47
2024/01/18 00:02:55;;;;;;;13.07;4.80;;;;;;;-2.11;97.01;99414.22;5021977;28;20052;-51
2024/01/18 00:05:22;;;;;;;8.68;4.55;;;;;;;-2.08;96.95;99432.59;5018433;28;20042;-48
2024/01/18 00:07:50;;;;;;;7.85;4.25;;;;;;;-2.07;97.06;99425.28;5028196;28;20411;-48
2024/01/18 00:10:17;;;;;;;8.13;5.10;;;;;;;-2.08;97.09;99432.59;5042759;28;20064;-51
2024/01/18 00:12:45;;;;;;;10.88;7.03;;;;;;;-2.05;97.01;99442.06;5047805;28;20052;-50
2024/01/18 00:15:12;;;;;;;5.15;3.58;;;;;;;-2.05;97.10;99429.31;5030725;28;20579;-48
2024/01/18 00:17:40;;;;;;;6.35;3.90;;;;;;;-2.04;96.74;99433.63;5034239;28;20071;-51
2024/01/18 00:20:08;;;;;;;5.47;3.42;;;;;;;-2.04;96.92;99441.75;5048399;28;20537;-47
2024/01/18 00:22:35;;;;;;;5.40;3.70;;;;;;;-2.02;96.90;99449.63;5047808;28;20422;-51
2024/01/18 00:25:03;;;;;;;6.18;3.83;;;;;;;-2.01;97.28;99443.06;5048102;28;20060;-51
2024/01/18 00:27:30;;;;;;;6.78;3.30;;;;;;;-2.00;96.99;99447.41;5013405;28;20384;-50
2024/01/18 00:29:57;;;;;;;5.95;3.33;;;;;;;-2.00;96.90;99448.22;5047858;28;20049;-50
2024/01/18 00:32:25;;;;;;;8.40;4.15;;;;;;;-2.00;97.03;99447.41;5047334;28;20041;-49
2024/01/18 00:34:52;;;;;;;5.25;3.60;;;;;;;-2.00;97.10;99447.41;5048196;28;20049;-51
2024/01/18 00:37:20;;;;;;;10.25;5.53;;;;;;;-2.00;97.17;99448.22;5047509;28;20037;-53
2024/01/18 00:39:47;;;;;;;6.93;4.53;;;;;;;-2.00;96.90;99445.50;5047497;28;20068;-51
2024/01/18 00:42:14;;;;;;;5.80;3.97;;;;;;;-2.00;96.99;99456.34;5047265;28;20037;-47
2024/01/18 00:44:42;;;;;;;8.60;4.63;;;;;;;-1.98;97.09;99462.28;5046985;28;20052;-48
2024/01/18 00:47:09;;;;;;;7.97;4.68;;;;;;;-2.00;96.89;99466.38;5047754;28;20049;-47
2024/01/18 00:49:36;;;;;;;7.53;4.43;;;;;;;-2.01;96.97;99457.44;5047856;28;20052;-53
2024/01/18 00:52:04;;;;;;;12.00;5.03;;;;;;;-2.03;96.99;99459.66;5047112;28;20402;-47
2024/01/18 00:54:31;;;;;;;9.55;5.13;;;;;;;-2.06;97.04;99465.66;5047128;28;20059;-53
2024/01/18 00:56:58;;;;;;;7.93;4.75;;;;;;;-2.07;96.85;99468.66;5047259;28;20510;-47
2024/01/18 00:59:26;;;;;;;20.48;4.78;;;;;;;-2.08;97.17;99476.00;5046907;28;20060;-47
2024/01/18 01:01:53;;;;;;;8.38;4.95;;;;;;;-2.10;97.27;99480.91;5048039;28;20411;-47
2024/01/18 01:04:20;;;;;;;9.25;4.65;;;;;;;-2.08;97.22;99477.88;5046888;28;20511;-50
2024/01/18 01:06:48;;;;;;;7.55;4.32;;;;;;;-2.08;97.20;99476.00;5045790;28;20503;-51
2024/01/18 01:09:15;;;;;;;7.32;4.00;;;;;;;-2.07;97.27;99485.75;5045502;28;20051;-48
2024/01/18 01:11:42;;;;;;;11.30;4.88;;;;;;;-2.09;97.27;99477.09;5046256;28;20057;-50
2024/01/18 01:14:10;;;;;;;8.00;4.78;;;;;;;-2.11;97.30;99487.41;5044085;28;20052;-53
2024/01/18 01:16:37;;;;;;;9.18;4.55;;;;;;;-2.10;97.32;99490.94;5046892;28;20380;-50
2024/01/18 01:19:04;;;;;;;11.98;5.13;;;;;;;-2.09;97.31;99493.34;5046587;28;20387;-51
2024/01/18 01:21:34;;;;;;;8.13;4.53;;;;;;;-2.10;97.26;99488.22;5047162;28;20053;-50
2024/01/18 01:24:02;;;;;;;8.80;4.80;;;;;;;-2.09;97.10;99492.56;5039426;28;20053;-50
2024/01/18 01:26:30;;;;;;;11.15;4.38;;;;;;;-2.08;97.38;99505.81;5038627;28;20053;-53
2024/01/18 01:28:58;;;;;;;6.30;3.70;;;;;;;-2.09;97.25;99496.06;5028338;28;20048;-49
2024/01/18 01:31:25;;;;;;;12.50;4.90;;;;;;;-2.09;97.18;99506.13;5039374;28;20049;-52
2024/01/18 01:33:52;;;;;;;7.88;4.10;;;;;;;-2.11;97.15;99503.69;5047126;28;20079;-47
2024/01/18 01:36:20;;;;;;;8.77;3.70;;;;;;;-2.10;97.46;99518.06;5038686;28;20053;-49
2024/01/18 01:38:48;;;;;;;9.00;4.10;;;;;;;-2.10;97.35;99516.16;5046443;28;20064;-53
2024/01/18 01:41:15;;;;;;;7.15;3.97;;;;;;;-2.08;97.37;99515.84;5047393;28;20048;-50
2024/01/18 01:44:01;;;;;;;7.20;3.95;;;;;;;-2.09;97.33;99520.47;5046274;28;20053;-47
2024/01/18 01:46:29;;;;;;;6.43;3.63;;;;;;;-2.08;97.57;99516.66;5030434;28;20517;-50
2024/01/18 01:49:02;;;;;;;5.72;3.88;;;;;;;-2.08;97.64;99526.69;5036103;28;20540;-47
2024/01/18 01:51:56;;;;;;;7.22;3.88;;;;;;;-2.09;97.45;99523.19;5046622;28;20057;-49
2024/01/18 01:54:29;;;;;;;6.13;3.97;;;;;;;-2.08;97.38;99532.13;5042753;28;20407;-50
2024/01/18 01:57:00;;;;;;;10.43;4.85;;;;;;;-2.10;97.26;99537.84;5047235;28;20048;-50
2024/01/18 01:59:27;;;;;;;7.82;2.85;;;;;;;-2.09;97.48;99544.88;5043742;28;20052;-52
2024/01/18 02:01:54;;;;;;;4.38;2.90;;;;;;;-2.10;97.48;99537.03;5045020;28;20060;-53
2024/01/18 02:04:22;;;;;;;8.27;4.22;;;;;;;-2.10;97.23;99545.97;5043938;28;20049;-53
2024/01/18 02:06:56;;;;;;;4.82;3.53;;;;;;;-2.13;97.53;99541.13;5026945;28;20412;-51
2024/01/18 02:09:24;;;;;;;6.22;3.50;;;;;;;-2.13;97.52;99549.28;5042773;28;20147;-48
2024/01/18 02:11:52;;;;;;;6.15;3.22;;;;;;;-2.15;97.57;99554.19;5047102;28;20048;-47
2024/01/18 02:14:19;;;;;;;6.30;3.70;;;;;;;-2.16;97.23;99555.28;5046693;28;20083;-50
2024/01/18 02:16:47;;;;;;;6.13;3.33;;;;;;;-2.17;97.34;99561.78;5046118;28;20053;-46
2024/01/18 02:19:14;;;;;;;7.35;3.47;;;;;;;-2.18;97.57;99565.59;5048490;28;20041;-53
2024/01/18 02:21:42;;;;;;;7.15;3.38;;;;;;;-2.20;97.52;99554.25;5050095;28;20059;-51
2024/01/18 02:24:24;;;;;;;5.45;2.65;;;;;;;-2.19;97.38;99569.41;5049456;28;20045;-50
2024/01/18 02:26:52;;;;;;;6.25;2.50;;;;;;;-2.21;97.30;99574.31;5049515;28;20060;-51
2024/01/18 02:29:19;;;;;;;5.05;3.28;;;;;;;-2.20;97.72;99592.22;5032179;28;20086;-48
2024/01/18 02:31:46;;;;;;;4.38;3.30;;;;;;;-2.18;97.46;99597.31;5044882;28;20507;-46
2024/01/18 02:34:17;;;;;;;6.78;2.13;;;;;;;-2.18;97.25;99608.16;5049581;28;20441;-52
2024/01/18 02:36:45;;;;;;;4.45;2.55;;;;;;;-2.18;97.45;99614.41;5049398;28;20045;-51
2024/01/18 02:39:13;;;;;;;4.20;2.63;;;;;;;-2.18;97.29;99616.31;5049442;28;20048;-50
2024/01/18 02:41:41;;;;;;;5.35;2.92;;;;;;;-2.20;97.54;99632.88;5049282;28;20068;-51
2024/01/18 02:44:08;;;;;;;6.00;3.25;;;;;;;-2.21;97.48;99625.00;5032376;28;20045;-52
2024/01/18 02:46:36;;;;;;;3.92;2.53;;;;;;;-2.23;97.53;99628.03;5048858;28;20775;-51
2024/01/18 02:49:03;;;;;;;5.32;2.90;;;;;;;-2.26;97.48;99623.16;5049465;28;20053;-52
2024/01/18 02:51:33;;;;;;;4.25;2.72;;;;;;;-2.26;97.45;99628.59;5048997;28;20709;-51
2024/01/18 02:54:00;;;;;;;10.50;3.38;;;;;;;-2.24;97.77;99631.00;5049655;28;20669;-49
2024/01/18 02:56:28;;;;;;;5.93;2.22;;;;;;;-2.24;97.72;99631.81;5049053;28;20912;-49
2024/01/18 02:58:55;;;;;;;3.50;2.90;;;;;;;-2.22;97.49;99647.78;5048992;28;20064;-50
2024/01/18 03:01:23;;;;;;;3.95;2.05;;;;;;;-2.21;97.74;99652.94;5049879;28;20048;-49
2024/01/18 03:03:50;;;;;;;5.85;2.65;;;;;;;-2.21;97.75;99655.66;5048993;28;20503;-50
2024/01/18 03:06:17;;;;;;;4.97;2.15;;;;;;;-2.21;97.80;99652.94;5048752;28;20076;-50
2024/01/18 03:08:45;;;;;;;6.97;3.95;;;;;;;-2.20;97.69;99657.28;5048701;28;20049;-51
2024/01/18 03:11:12;;;;;;;4.53;2.35;;;;;;;-2.20;97.87;99654.56;5048774;28;20620;-46
2024/01/18 03:13:40;;;;;;;4.63;3.42;;;;;;;-2.18;97.50;99652.34;5049482;28;20052;-53
2024/01/18 03:16:08;;;;;;;7.78;2.63;;;;;;;-2.18;97.47;99652.34;5049229;28;20418;-48
2024/01/18 03:18:35;;;;;;;4.88;2.88;;;;;;;-2.17;97.53;99661.31;5042185;28;20053;-46
2024/01/18 03:21:06;;;;;;;7.43;3.50;;;;;;;-2.16;97.61;99663.72;5048830;28;20059;-49
2024/01/18 03:23:33;;;;;;;5.72;3.15;;;;;;;-2.20;97.22;99656.47;5047582;28;20146;-51
2024/01/18 03:26:01;;;;;;;8.32;4.00;;;;;;;-2.22;97.33;99664.84;5049185;28;20045;-50
2024/01/18 03:28:28;;;;;;;7.35;4.05;;;;;;;-2.28;97.02;99659.78;5038413;28;20049;-51
2024/01/18 03:30:55;;;;;;;7.45;4.13;;;;;;;-2.34;97.33;99666.34;5035752;28;20037;-50
2024/01/18 03:33:22;;;;;;;8.13;4.65;;;;;;;-2.43;97.18;99659.94;5048929;28;20538;-49
2024/01/18 03:35:50;;;;;;;9.32;3.75;;;;;;;-2.48;97.36;99666.22;5047803;28;20056;-48
2024/01/18 03:38:17;;;;;;;8.50;3.78;;;;;;;-2.52;97.25;99663.28;5048541;28;20503;-46
2024/01/18 03:40:44;;;;;;;6.82;4.13;;;;;;;-2.54;97.31;99670.06;5048109;28;20395;-48
2024/01/18 03:43:12;;;;;;;7.88;3.95;;;;;;;-2.55;97.41;99676.59;5048269;28;20510;-48
2024/01/18 03:45:39;;;;;;;8.38;3.63;;;;;;;-2.57;97.45;99679.56;5048360;28;20041;-48
2024/01/18 03:48:06;;;;;;;5.78;4.72;;;;;;;-2.55;97.77;99676.59;5047680;28;20044;-53
2024/01/18 03:50:34;;;;;;;6.72;3.25;;;;;;;-2.57;97.43;99687.69;5047274;28;20060;-52
2024/01/18 03:53:01;;;;;;;6.70;3.25;;;;;;;-2.58;97.61;99690.69;5044993;28;20068;-48
2024/01/18 03:55:29;;;;;;;7.28;3.13;;;;;;;-2.58;97.48;99694.22;5047782;28;20052;-50
2024/01/18 03:57:57;;;;;;;3.95;2.53;;;;;;;-2.59;97.53;99697.19;5047806;28;20049;-53
2024/01/18 04:00:25;;;;;;;5.93;3.65;;;;;;;-2.60;97.85;99692.91;5046301;28;20059;-49
2024/01/18 04:02:53;;;;;;;7.40;3.53;;;;;;;-2.59;97.87;99699.91;5030023;28;20044;-50
2024/01/18 04:05:21;;;;;;;4.80;3.00;;;;;;;-2.60;97.58;99703.72;5048049;28;20052;-48
2024/01/18 04:07:48;;;;;;;4.03;2.72;;;;;;;-2.59;97.67;99705.31;5047859;28;20673;-49
2024/01/18 04:10:16;;;;;;;6.78;3.58;;;;;;;-2.63;97.71;99709.72;5044910;28;20040;-50
2024/01/18 04:12:43;;;;;;;5.28;3.50;;;;;;;-2.63;98.10;99720.56;5047474;28;20056;-48
2024/01/18 04:15:11;;;;;;;5.78;3.20;;;;;;;-2.63;97.74;99707.81;5047192;28;20052;-53
2024/01/18 04:17:38;;;;;;;6.47;3.13;;;;;;;-2.63;97.61;99715.94;5047733;28;20057;-48
2024/01/18 04:20:06;;;;;;;6.70;3.03;;;;;;;-2.64;97.69;99714.31;5047955;28;20041;-49
2024/01/18 04:22:34;;;;;;;4.63;2.40;;;;;;;-2.68;97.88;99709.75;5046726;28;20083;-51
2024/01/18 04:25:01;;;;;;;5.40;3.13;;;;;;;-2.68;97.82;99726.00;5047173;28;20056;-51
2024/01/18 04:27:28;;;;;;;4.55;2.63;;;;;;;-2.70;97.98;99725.50;5043303;28;20052;-46
2024/01/18 04:29:56;;;;;;;8.50;3.55;;;;;;;-2.70;97.81;99730.91;5034467;28;20057;-50
2024/01/18 04:32:23;;;;;;;3.90;2.65;;;;;;;-2.68;98.17;99734.13;5046917;28;20407;-51
2024/01/18 04:34:51;;;;;;;8.93;3.15;;;;;;;-2.71;97.91;99734.69;5029892;28;20053;-50
2024/01/18 04:37:18;;;;;;;4.78;2.92;;;;;;;-2.71;97.99;99729.28;5047148;28;20044;-51
2024/01/18 04:39:45;;;;;;;2.92;2.05;;;;;;;-2.73;97.71;99726.06;5028982;28;20049;-51
2024/01/18 04:42:14;;;;;;;5.05;3.00;;;;;;;-2.73;97.69;99720.63;5047425;28;20041;-47
2024/01/18 04:44:42;;;;;;;5.47;3.10;;;;;;;-2.71;97.94;99724.69;5045810;28;20407;-50
2024/01/18 04:47:10;;;;;;;6.10;3.47;;;;;;;-2.73;97.98;99736.88;5044437;28;20064;-50
2024/01/18 04:49:37;;;;;;;5.45;2.85;;;;;;;-2.73;97.94;99742.31;5045506;28;20041;-49
2024/01/18 04:52:04;;;;;;;6.07;3.45;;;;;;;-2.73;97.84;99763.97;5046525;28;20036;-48
2024/01/18 04:54:32;;;;;;;10.00;3.40;;;;;;;-2.73;97.58;99774.81;5046767;28;20056;-51
2024/01/18 04:57:00;;;;;;;7.10;3.65;;;;;;;-2.73;97.89;99781.03;5046956;28;20415;-50
2024/01/18 04:59:27;;;;;;;6.65;3.90;;;;;;;-2.77;98.23;99785.38;5046470;28;20041;-48
2024/01/18 05:01:55;;;;;;;6.13;3.95;;;;;;;-2.74;98.04;99789.44;5047206;28;20059;-49
2024/01/18 05:04:22;;;;;;;5.18;2.97;;;;;;;-2.79;97.81;99793.00;5043345;28;20048;-49
2024/01/18 05:06:49;;;;;;;5.80;3.28;;;;;;;-2.78;97.83;99794.59;5009305;28;20060;-50
2024/01/18 05:09:18;;;;;;;6.18;3.15;;;;;;;-2.77;97.81;99807.06;5043200;28;20056;-50
2024/01/18 05:11:46;;;;;;;5.45;2.95;;;;;;;-2.79;97.85;99814.66;5044754;28;20060;-50
2024/01/18 05:14:13;;;;;;;7.32;3.17;;;;;;;-2.77;98.15;99814.38;5046226;28;20053;-49
2024/01/18 05:16:43;;;;;;;10.65;3.17;;;;;;;-2.76;97.79;99813.28;5046416;28;20051;-51
2024/01/18 05:19:11;;;;;;;5.80;3.03;;;;;;;-2.75;98.08;99812.19;5046926;28;20029;-50
2024/01/18 05:21:38;;;;;;;6.90;3.63;;;;;;;-2.76;97.68;99826.84;5046060;28;20041;-49
2024/01/18 05:24:07;;;;;;;7.72;3.28;;;;;;;-2.77;98.13;99828.72;5041796;28;20049;-50
2024/01/18 05:26:34;;;;;;;8.48;3.80;;;;;;;-2.76;97.94;99832.25;5046357;28;20068;-50
2024/01/18 05:29:01;;;;;;;5.75;3.17;;;;;;;-2.75;97.91;99837.38;5046486;28;20049;-50
2024/01/18 05:31:30;;;;;;;7.82;3.83;;;;;;;-2.79;97.80;99840.94;5046845;28;20045;-46
2024/01/18 05:33:57;;;;;;;7.38;3.58;;;;;;;-2.75;98.25;99841.97;5045887;28;20652;-51
2024/01/18 05:36:25;;;;;;;7.53;4.22;;;;;;;-2.72;97.76;99847.66;5046829;28;20468;-48
2024/01/18 05:38:52;;;;;;;8.85;4.68;;;;;;;-2.75;98.01;99858.22;5046380;28;20052;-51
2024/01/18 05:41:20;;;;;;;6.47;3.80;;;;;;;-2.74;97.60;99854.44;5046596;28;20044;-52
2024/01/18 05:43:47;;;;;;;6.68;4.07;;;;;;;-2.73;97.64;99866.91;5024938;28;20048;-50
2024/01/18 05:46:15;;;;;;;6.38;3.70;;;;;;;-2.75;97.76;99861.75;5046288;28;20063;-50
2024/01/18 05:48:42;;;;;;;11.18;5.28;;;;;;;-2.78;97.57;99870.44;5032505;28;20049;-48
2024/01/18 05:51:10;;;;;;;8.90;4.15;;;;;;;-2.81;97.47;99864.78;5040113;28;20063;-50
2024/01/18 05:53:38;;;;;;;7.28;5.05;;;;;;;-2.84;97.45;99868.03;5034821;28;20566;-50
2024/01/18 05:56:06;;;;;;;7.28;4.00;;;;;;;-2.85;97.75;99874.53;5049863;28;20519;-47
2024/01/18 05:58:33;;;;;;;8.23;4.40;;;;;;;-2.85;97.58;99877.25;5050099;28;20571;-50
2024/01/18 06:01:05;;;;;;;5.18;3.55;;;;;;;-2.88;98.07;99891.34;5049106;28;20037;-53
2024/01/18 06:03:32;;;;;;;7.95;3.33;;;;;;;-2.89;97.77;99895.16;5045029;28;20037;-49
2024/01/18 06:06:00;;;;;;;9.18;4.38;;;;;;;-2.92;97.77;99904.66;5043564;28;20044;-47
2024/01/18 06:08:27;;;;;;;11.90;4.60;;;;;;;-2.90;97.98;99910.59;5040337;28;20068;-47
2024/01/18 06:10:55;;;;;;;7.85;4.65;;;;;;;-2.90;98.18;99916.00;5050226;28;20063;-52
2024/01/18 06:13:23;;;;;;;7.78;4.60;;;;;;;-2.90;97.95;99916.00;5033173;28;20392;-47
2024/01/18 06:15:50;;;;;;;11.63;5.68;;;;;;;-2.88;97.73;99918.41;5046947;28;20403;-46
2024/01/18 06:18:18;;;;;;;8.90;3.97;;;;;;;-2.88;97.76;99913.00;5041909;28;20056;-46
2024/01/18 06:20:45;;;;;;;5.88;3.78;;;;;;;-2.92;97.98;99923.59;5044494;28;20407;-51
2024/01/18 06:23:13;;;;;;;4.85;3.35;;;;;;;-2.93;97.99;99921.16;5050548;28;20049;-48
2024/01/18 06:25:41;;;;;;;8.30;4.15;;;;;;;-2.89;98.46;99916.81;5045005;28;20045;-51
2024/01/18 06:28:10;;;;;;;8.13;4.80;;;;;;;-2.88;98.53;99921.94;5050107;28;20391;-49
2024/01/18 06:30:43;;;;;;;7.30;4.10;;;;;;;-2.89;98.01;99933.06;5048946;28;20128;-47
2024/01/18 06:33:11;;;;;;;6.75;4.38;;;;;;;-2.92;98.40;99936.31;5049316;28;20511;-49
2024/01/18 06:35:39;;;;;;;6.88;3.55;;;;;;;-2.92;98.26;99947.97;5049276;28;20045;-46
2024/01/18 06:38:06;;;;;;;7.57;4.20;;;;;;;-2.93;98.15;99945.53;5035008;28;20053;-47
2024/01/18 06:40:34;;;;;;;8.65;4.03;;;;;;;-2.94;98.17;99946.63;5045375;28;20048;-47
2024/01/18 06:43:02;;;;;;;12.07;5.68;;;;;;;-2.92;98.17;99958.00;5049389;28;20052;-49
2024/01/18 06:45:29;;;;;;;8.30;4.75;;;;;;;-2.93;98.61;99961.78;5041042;28;20553;-47
2024/01/18 06:47:56;;;;;;;5.85;4.05;;;;;;;-2.94;98.47;99958.28;5045066;28;20423;-47
2024/01/18 06:50:24;;;;;;;7.55;3.92;;;;;;;-2.91;98.78;99967.75;5037819;28;20056;-47
2024/01/18 06:52:51;;;;;;;6.43;4.15;;;;;;;-2.91;98.18;99970.44;5049193;28;20439;-50
2024/01/18 06:55:19;;;;;;;6.43;3.78;;;;;;;-2.93;98.96;99964.47;5021274;28;20071;-50
2024/01/18 06:57:48;;;;;;;8.50;4.60;;;;;;;-2.93;98.49;99969.91;5044669;28;20052;-50
2024/01/18 07:00:24;;;;;;;7.63;4.97;;;;;;;-2.94;98.76;99974.53;5042920;28;20044;-50
2024/01/18 07:02:52;;;;;;;7.97;5.45;;;;;;;-2.97;98.43;99979.66;5048828;28;20076;-50
2024/01/18 07:05:20;;;;;;;9.55;4.38;;;;;;;-2.98;98.63;99978.03;5046569;28;20052;-52
2024/01/18 07:07:47;;;;;;;7.70;4.15;;;;;;;-2.97;98.47;99987.78;5048901;28;20045;-49
2024/01/18 07:10:15;;;;;;;6.03;3.90;;;;;;;-2.98;98.61;99999.69;5048114;28;20057;-48
2024/01/18 07:12:42;;;;;;;7.15;4.20;;;;;;;-2.98;98.66;100010.53;5048993;28;20040;-49
2024/01/18 07:15:10;;;;;;;7.47;4.18;;;;;;;-2.99;98.48;100014.34;5047639;28;20049;-45
2024/01/18 07:17:37;;;;;;;7.38;5.22;;;;;;;-2.99;98.59;100015.13;5048325;28;20063;-51
2024/01/18 07:20:06;;;;;;;6.97;4.40;;;;;;;-3.01;98.68;100008.38;5049162;28;20049;-51
2024/01/18 07:22:34;;;;;;;6.82;3.97;;;;;;;-3.04;98.72;100027.88;5030774;28;20068;-48
2024/01/18 07:25:03;;;;;;;9.82;5.57;;;;;;;-3.04;98.65;100017.06;5048677;28;20029;-52
2024/01/18 07:27:31;;;;;;;11.18;5.20;;;;;;;-3.06;98.71;100025.44;5048315;28;20059;-48
2024/01/18 07:30:00;;;;;;;12.00;5.63;;;;;;;-3.05;98.95;100029.78;5042533;28;20053;-49
2024/01/18 07:32:29;;;;;;;11.45;5.85;;;;;;;-3.06;98.53;100033.56;5046054;28;20079;-51
2024/01/18 07:34:56;;;;;;;10.38;5.28;;;;;;;-3.08;98.70;100041.97;5048093;28;20037;-50
2024/01/18 07:37:24;;;;;;;9.18;5.95;;;;;;;-3.10;98.80;100049.53;5048599;28;20041;-51
2024/01/18 07:39:51;;;;;;;9.40;4.82;;;;;;;-3.13;98.59;100052.00;5048066;28;20056;-48
2024/01/18 07:42:19;;;;;;;10.15;5.82;;;;;;;-3.15;98.45;100054.94;5048110;28;20052;-46
2024/01/18 07:44:47;;;;;;;7.85;4.82;;;;;;;-3.15;98.63;100060.38;5029569;28;20041;-47
2024/01/18 07:47:16;;;;;;;10.80;4.82;;;;;;;-3.11;98.64;100066.88;5048405;28;20049;-52
2024/01/18 07:49:46;;;;;;;8.80;4.55;;;;;;;-3.14;98.36;100062.00;5048231;28;20053;-50
2024/01/18 07:52:17;;;;;;;8.15;4.40;;;;;;;-3.16;98.81;100072.28;5048671;28;20053;-52
2024/01/18 07:54:45;;;;;;;8.23;4.82;;;;;;;-3.12;99.13;100070.66;5048341;28;20052;-48
2024/01/18 07:57:13;;;;;;;9.75;4.70;;;;;;;-3.11;98.63;100074.19;5045261;28;20075;-50
2024/01/18 07:59:40;;;;;;;6.35;4.45;;;;;;;-3.10;98.78;100073.91;5047708;28;20087;-50
2024/01/18 08:02:09;;;;;;;8.73;5.40;;;;;;;-3.11;98.86;100085.00;5048910;28;20051;-48
2024/01/18 08:04:37;;;;;;;10.85;6.15;;;;;;;-3.11;98.82;100099.38;5028377;28;20753;-50
2024/01/18 08:07:04;;;;;;;10.93;6.85;;;;;;;-3.09;98.40;100102.59;5046528;28;20056;-49
2024/01/18 08:09:31;;;;;;;14.40;8.38;;;;;;;-3.10;98.44;100111.78;5043447;28;20594;-47
2024/01/18 08:11:59;;;;;;;16.17;6.70;;;;;;;-3.13;98.64;100116.97;5047771;28;20037;-50
2024/01/18 08:14:26;;;;;;;15.32;9.13;;;;;;;-3.15;98.75;100114.50;5047224;28;20045;-53
2024/01/18 08:16:54;;;;;;;15.15;5.70;;;;;;;-3.14;99.05;100120.75;5047916;28;20052;-48
2024/01/18 08:19:22;;;;;;;9.00;4.78;;;;;;;-3.14;98.68;100126.97;5048056;28;20076;-49
2024/01/18 08:21:49;;;;;;;9.13;4.28;;;;;;;-3.13;99.07;100134.03;5030274;28;20045;-47
2024/01/18 08:24:17;;;;;;;11.55;4.53;;;;;;;-3.13;99.07;100134.03;5030145;28;20280;-48
2024/01/18 08:26:44;;;;;;;7.72;4.75;;;;;;;-3.13;99.02;100134.03;5048057;28;20056;-47
2024/01/18 08:29:11;;;;;;;5.22;3.95;;;;;;;-3.14;99.18;100145.91;5034190;28;20754;-49
2024/01/18 08:31:40;;;;;;;15.38;4.38;;;;;;;-3.13;99.30;100144.84;5028135;28;20068;-51
2024/01/18 08:34:07;;;;;;;6.35;4.18;;;;;;;-3.13;98.88;100155.69;5034823;28;20505;-49
2024/01/18 08:36:36;;;;;;;11.57;4.55;;;;;;;-3.13;99.44;100162.97;5047185;28;20053;-51
2024/01/18 08:39:04;;;;;;;8.73;4.20;;;;;;;-3.13;99.31;100163.81;5045638;28;20490;-46
2024/01/18 08:41:31;;;;;;;6.18;3.63;;;;;;;-3.12;99.16;100168.13;5047064;28;20503;-51
2024/01/18 08:43:58;;;;;;;7.15;3.70;;;;;;;-3.13;99.30;100166.50;5028810;28;20055;-49
2024/01/18 08:46:26;;;;;;;7.50;3.38;;;;;;;-3.11;99.35;100175.16;5044949;28;20057;-48
2024/01/18 08:48:53;;;;;;;12.70;3.60;;;;;;;-3.09;99.58;100178.41;5036315;28;20503;-46
2024/01/18 08:51:21;;;;;;;7.85;3.40;;;;;;;-3.07;99.42;100180.84;5047296;28;20056;-51
2024/01/18 08:53:48;;;;;;;4.65;3.45;;;;;;;-3.03;99.13;100176.53;5046967;28;20056;-49
2024/01/18 08:56:17;;;;;;;6.43;3.42;;;;;;;-3.00;99.14;100170.56;5047627;28;20049;-51
2024/01/18 08:58:52;;;;;;;5.28;3.22;;;;;;;-2.98;99.49;100183.81;5047941;28;20048;-49
2024/01/18 09:01:20;;;;;;;7.93;3.42;;;;;;;-2.96;99.36;100192.50;5047457;28;20435;-46
2024/01/18 09:03:47;;;;;;;9.50;4.00;;;;;;;-2.98;99.48;100195.47;5047373;28;20678;-50
2024/01/18 09:06:15;;;;;;;9.57;4.15;;;;;;;-2.93;99.34;100197.38;5047288;28;20048;-52
2024/01/18 09:08:43;;;;;;;5.97;2.90;;;;;;;-2.94;99.26;100206.59;5047169;28;20049;-52
2024/01/18 09:11:10;;;;;;;7.63;3.47;;;;;;;-2.93;99.61;100210.91;5047000;28;20045;-52
2024/01/18 09:13:38;;;;;;;5.20;3.13;;;;;;;-2.91;99.25;100216.91;5047070;28;20049;-51
2024/01/18 09:16:07;;;;;;;6.75;3.85;;;;;;;-2.92;99.20;100226.09;5046906;28;20052;-52
2024/01/18 09:18:34;;;;;;;5.95;4.35;;;;;;;-2.90;99.17;100232.88;5047343;28;20057;-49
2024/01/18 09:21:01;;;;;;;5.13;3.08;;;;;;;-2.88;99.62;100238.00;5012308;28;20045;-51
2024/01/18 09:23:29;;;;;;;8.05;3.80;;;;;;;-2.85;99.79;100237.47;5047118;28;20045;-50
2024/01/18 09:25:56;;;;;;;7.72;3.65;;;;;;;-2.83;99.45;100243.44;5047126;28;20522;-46
2024/01/18 09:28:24;;;;;;;6.55;3.33;;;;;;;-2.82;99.78;100253.19;5046507;28;20049;-53
2024/01/18 09:30:52;;;;;;;8.82;3.22;;;;;;;-2.79;99.80;100256.16;5046634;28;20049;-48
2024/01/18 09:33:19;;;;;;;7.45;3.67;;;;;;;-2.78;99.45;100267.81;5046481;28;20077;-51
2024/01/18 09:35:47;;;;;;;5.60;3.08;;;;;;;-2.76;99.68;100271.06;5046994;28;20049;-50
2024/01/18 09:38:14;;;;;;;6.22;3.20;;;;;;;-2.74;99.81;100277.03;5047244;28;20537;-51
2024/01/18 09:40:42;;;;;;;8.27;5.15;;;;;;;-2.71;99.91;100271.91;5047189;28;20060;-51
2024/01/18 09:43:10;;;;;;;9.05;4.10;;;;;;;-2.66;99.93;100281.91;5046303;28;20040;-50
2024/01/18 09:45:43;;;;;;;10.38;4.43;;;;;;;-2.63;99.67;100284.91;5047101;28;20526;-47
2024/01/18 09:48:11;;;;;;;6.00;3.75;;;;;;;-2.58;99.67;100286.81;5046400;28;20045;-52
2024/01/18 09:50:46;;;;;;;7.85;3.97;;;;;;;-2.55;99.92;100286.25;5046952;28;20059;-49
2024/01/18 09:53:13;;;;;;;6.57;3.95;;;;;;;-2.51;99.70;100287.34;5046211;28;20522;-46
2024/01/18 09:55:41;;;;;;;6.00;3.55;;;;;;;-2.46;99.83;100292.75;5046704;28;20053;-51
2024/01/18 09:58:12;;;;;;;6.22;3.35;;;;;;;-2.42;99.96;100296.56;5046719;28;20045;-50
2024/01/18 10:00:44;;;;;;;5.30;3.65;;;;;;;-2.39;99.94;100300.63;5046769;28;20063;-51
2024/01/18 10:03:12;;;;;;;8.55;4.03;;;;;;;-2.38;99.85;100302.28;5047044;28;20056;-48
2024/01/18 10:05:42;;;;;;;6.80;4.20;;;;;;;-2.34;99.89;100312.28;5046530;28;20044;-46
2024/01/18 10:08:10;;;;;;;7.97;4.32;;;;;;;-2.28;99.98;100316.63;5046497;28;20099;-50
2024/01/18 10:10:37;;;;;;;6.00;3.92;;;;;;;-2.23;100.00;100319.34;5046537;28;20063;-51
2024/01/18 10:13:05;;;;;;;6.78;3.72;;;;;;;-2.18;100.00;100327.47;5046811;28;20049;-52
2024/01/18 10:15:33;;;;;;;7.13;3.80;;;;;;;-2.14;100.00;100331.25;5046734;28;20049;-51
2024/01/18 10:18:04;;;;;;;5.03;2.95;;;;;;;-2.12;100.00;100329.06;5046282;28;20048;-47
2024/01/18 10:20:31;;;;;;;7.95;3.95;;;;;;;-2.11;100.00;100338.84;5046765;28;20056;-53
2024/01/18 10:23:00;;;;;;;7.03;3.90;;;;;;;-2.07;100.00;100341.84;5046655;28;20053;-49
2024/01/18 10:25:31;;;;;;;11.52;3.42;;;;;;;-2.03;100.00;100348.34;5046306;28;20053;-47
2024/01/18 10:27:59;;;;;;;10.43;3.80;;;;;;;-1.99;100.00;100350.25;5046853;28;20052;-46
2024/01/18 10:30:26;;;;;;;12.10;3.20;;;;;;;-1.94;100.00;100363.81;5046258;28;20060;-51
2024/01/18 10:32:54;;;;;;;4.55;3.20;;;;;;;-1.90;100.00;100359.47;5047039;28;20056;-49
2024/01/18 10:35:26;;;;;;;8.23;3.55;;;;;;;-1.86;100.00;100376.84;5046285;28;20049;-48
2024/01/18 10:38:01;;;;;;;7.78;3.97;;;;;;;-1.80;100.00;100374.09;5046393;28;20148;-49
2024/01/18 10:40:31;;;;;;;4.80;3.40;;;;;;;-1.76;100.00;100381.44;5048978;28;20059;-51
2024/01/18 10:42:59;;;;;;;6.75;3.45;;;;;;;-1.73;100.00;100371.91;5050306;28;20053;-50
2024/01/18 10:45:32;;;;;;;3.92;3.53;;;;;;;-1.69;100.00;100387.38;5049879;28;20499;-51
2024/01/18 10:48:00;;;;;;;7.93;2.88;;;;;;;-1.64;100.00;100390.06;5049803;28;20407;-50
2024/01/18 10:50:31;;;;;;;6.57;3.63;;;;;;;-1.59;100.00;100402.84;5049663;28;20419;-48
2024/01/18 10:52:59;;;;;;;5.75;3.80;;;;;;;-1.54;100.00;100397.41;5049830;28;20700;-50
2024/01/18 10:55:26;;;;;;;8.95;3.35;;;;;;;-1.49;100.00;100403.66;5049736;28;20045;-47
2024/01/18 10:57:54;;;;;;;5.32;3.50;;;;;;;-1.44;100.00;100405.53;5049894;28;20068;-53
2024/01/18 11:00:21;;;;;;;7.68;3.30;;;;;;;-1.39;100.00;100403.63;5049915;28;20037;-46
2024/01/18 11:02:50;;;;;;;10.68;5.03;;;;;;;-1.35;100.00;100414.75;5046632;28;20045;-49
2024/01/18 11:05:20;;;;;;;5.35;3.38;;;;;;;-1.30;100.00;100420.97;5029962;28;20045;-50
2024/01/18 11:07:49;;;;;;;9.35;4.13;;;;;;;-1.26;100.00;100416.63;5033346;28;20045;-48
2024/01/18 11:10:17;;;;;;;5.80;3.08;;;;;;;-1.23;100.00;100426.94;5049427;28;20052;-46
2024/01/18 11:12:49;;;;;;;11.00;3.83;;;;;;;-1.18;100.00;100439.69;5049330;28;20041;-46
2024/01/18 11:15:16;;;;;;;;;;;;;;;-1.14;100.00;100431.81;5049311;28;20053;-51
2024/01/18 11:17:46;;;;;;;9.45;3.72;;;;;;;-1.12;100.00;100438.59;5049829;28;20401;-48
2024/01/18 11:20:15;;;;;;;5.45;3.00;;;;;;;-1.10;100.00;100436.41;5049731;28;20044;-48
2024/01/18 11:22:42;;;;;;;7.75;3.00;;;;;;;-1.07;100.00;100444.00;5049456;28;20046;-46
2024/01/18 11:25:12;;;;;;;6.65;2.85;;;;;;;-1.02;100.00;100441.28;5049018;28;20057;-52
2024/01/18 11:27:41;;;;;;;5.80;2.95;;;;;;;-0.97;100.00;100454.03;5049430;28;20515;-50
2024/01/18 11:30:33;;;;;;;7.72;3.92;;;;;;;-0.95;100.00;100455.38;5048776;28;20529;-47
2024/01/18 11:33:07;;;;;;;5.75;3.03;;;;;;;-0.93;100.00;100449.69;5049177;28;20053;-50